sensor_id;sensor_type;location;lat;lon;timestamp;P1;durP1;ratioP1;P2;durP2;ratioP2
68247;SDS011;55064;49.636;12.164;2023-02-22T00:00:40;10.27;;;3.83;;
68247;SDS011;55064;49.636;12.164;2023-02-22T00:05:42;8.50;;;4.53;;
68247;SDS011;55064;49.636;12.164;2023-02-22T00:08:11;8.80;;;4.13;;
68247;SDS011;55064;49.636;12.164;2023-02-22T00:10:40;8.25;;;4.55;;
68247;SDS011;55064;49.636;12.164;2023-02-22T00:13:07;8.88;;;4.30;;
68247;SDS011;55064;49.636;12.164;2023-02-22T00:15:35;10.45;;;4.35;;
68247;SDS011;55064;49.636;12.164;2023-02-22T00:18:01;10.55;;;4.50;;
68247;SDS011;55064;49.636;12.164;2023-02-22T00:20:28;8.83;;;4.17;;
68247;SDS011;55064;49.636;12.164;2023-02-22T00:22:53;11.40;;;4.70;;
68247;SDS011;55064;49.636;12.164;2023-02-22T00:25:20;10.90;;;4.40;;
68247;SDS011;55064;49.636;12.164;2023-02-22T00:27:47;9.57;;;4.13;;
68247;SDS011;55064;49.636;12.164;2023-02-22T00:30:21;9.02;;;4.05;;
68247;SDS011;55064;49.636;12.164;2023-02-22T00:32:49;10.20;;;4.03;;
68247;SDS011;55064;49.636;12.164;2023-02-22T00:35:16;9.07;;;4.15;;
68247;SDS011;55064;49.636;12.164;2023-02-22T00:37:49;8.57;;;4.00;;
68247;SDS011;55064;49.636;12.164;2023-02-22T00:40:17;10.43;;;3.90;;
68247;SDS011;55064;49.636;12.164;2023-02-22T00:42:45;10.23;;;4.60;;
68247;SDS011;55064;49.636;12.164;2023-02-22T00:45:11;10.73;;;4.22;;
68247;SDS011;55064;49.636;12.164;2023-02-22T00:47:42;13.60;;;5.50;;
68247;SDS011;55064;49.636;12.164;2023-02-22T00:50:08;8.63;;;3.70;;
68247;SDS011;55064;49.636;12.164;2023-02-22T00:52:35;9.68;;;4.35;;
68247;SDS011;55064;49.636;12.164;2023-02-22T00:55:09;9.90;;;4.30;;
68247;SDS011;55064;49.636;12.164;2023-02-22T00:57:39;9.70;;;4.00;;
68247;SDS011;55064;49.636;12.164;2023-02-22T01:00:05;10.33;;;4.00;;
68247;SDS011;55064;49.636;12.164;2023-02-22T01:02:39;11.53;;;4.20;;
68247;SDS011;55064;49.636;12.164;2023-02-22T01:05:06;10.25;;;4.40;;
68247;SDS011;55064;49.636;12.164;2023-02-22T01:07:33;12.23;;;5.22;;
68247;SDS011;55064;49.636;12.164;2023-02-22T01:09:59;9.23;;;4.00;;
68247;SDS011;55064;49.636;12.164;2023-02-22T01:12:25;9.20;;;4.13;;
68247;SDS011;55064;49.636;12.164;2023-02-22T01:14:51;14.25;;;5.45;;
68247;SDS011;55064;49.636;12.164;2023-02-22T01:17:16;16.73;;;6.73;;
68247;SDS011;55064;49.636;12.164;2023-02-22T01:19:42;17.27;;;6.85;;
68247;SDS011;55064;49.636;12.164;2023-02-22T01:22:07;15.13;;;5.70;;
68247;SDS011;55064;49.636;12.164;2023-02-22T01:24:34;14.30;;;5.43;;
68247;SDS011;55064;49.636;12.164;2023-02-22T01:27:02;17.63;;;6.20;;
68247;SDS011;55064;49.636;12.164;2023-02-22T01:29:29;19.92;;;6.18;;
68247;SDS011;55064;49.636;12.164;2023-02-22T01:31:54;9.83;;;4.43;;
68247;SDS011;55064;49.636;12.164;2023-02-22T01:34:21;11.70;;;4.97;;
68247;SDS011;55064;49.636;12.164;2023-02-22T01:36:48;10.30;;;4.70;;
68247;SDS011;55064;49.636;12.164;2023-02-22T01:39:15;10.93;;;4.17;;
68247;SDS011;55064;49.636;12.164;2023-02-22T01:41:44;10.07;;;4.55;;
68247;SDS011;55064;49.636;12.164;2023-02-22T01:47:03;9.90;;;4.25;;
68247;SDS011;55064;49.636;12.164;2023-02-22T01:49:31;11.63;;;4.50;;
68247;SDS011;55064;49.636;12.164;2023-02-22T01:52:09;8.77;;;3.83;;
68247;SDS011;55064;49.636;12.164;2023-02-22T01:54:38;9.48;;;4.57;;
68247;SDS011;55064;49.636;12.164;2023-02-22T01:57:12;9.10;;;4.40;;
68247;SDS011;55064;49.636;12.164;2023-02-22T01:59:41;10.38;;;4.25;;
68247;SDS011;55064;49.636;12.164;2023-02-22T02:02:11;12.50;;;4.30;;
68247;SDS011;55064;49.636;12.164;2023-02-22T02:04:38;9.73;;;4.28;;
68247;SDS011;55064;49.636;12.164;2023-02-22T02:07:06;11.07;;;4.63;;
68247;SDS011;55064;49.636;12.164;2023-02-22T02:12:04;20.52;;;7.93;;
68247;SDS011;55064;49.636;12.164;2023-02-22T02:14:35;27.70;;;9.03;;
68247;SDS011;55064;49.636;12.164;2023-02-22T02:17:06;28.00;;;9.63;;
68247;SDS011;55064;49.636;12.164;2023-02-22T02:39:26;13.57;;;5.35;;
68247;SDS011;55064;49.636;12.164;2023-02-22T02:41:54;12.67;;;4.90;;
68247;SDS011;55064;49.636;12.164;2023-02-22T02:44:27;12.23;;;5.07;;
68247;SDS011;55064;49.636;12.164;2023-02-22T02:47:04;11.52;;;4.70;;
68247;SDS011;55064;49.636;12.164;2023-02-22T02:49:46;12.90;;;5.68;;
68247;SDS011;55064;49.636;12.164;2023-02-22T02:52:18;15.98;;;5.65;;
68247;SDS011;55064;49.636;12.164;2023-02-22T02:54:48;17.13;;;6.43;;
68247;SDS011;55064;49.636;12.164;2023-02-22T02:57:18;17.73;;;6.13;;
68247;SDS011;55064;49.636;12.164;2023-02-22T02:59:43;17.50;;;5.93;;
68247;SDS011;55064;49.636;12.164;2023-02-22T03:05:38;12.37;;;4.97;;
68247;SDS011;55064;49.636;12.164;2023-02-22T03:08:06;12.20;;;4.75;;
68247;SDS011;55064;49.636;12.164;2023-02-22T03:13:13;9.15;;;4.32;;
68247;SDS011;55064;49.636;12.164;2023-02-22T03:18:26;25.43;;;6.80;;
68247;SDS011;55064;49.636;12.164;2023-02-22T03:23:36;37.78;;;9.50;;
68247;SDS011;55064;49.636;12.164;2023-02-22T03:26:07;32.60;;;11.15;;
68247;SDS011;55064;49.636;12.164;2023-02-22T03:28:36;26.67;;;6.72;;
68247;SDS011;55064;49.636;12.164;2023-02-22T03:31:07;19.50;;;5.90;;
68247;SDS011;55064;49.636;12.164;2023-02-22T03:33:44;16.65;;;5.07;;
68247;SDS011;55064;49.636;12.164;2023-02-22T03:36:26;14.85;;;5.40;;
68247;SDS011;55064;49.636;12.164;2023-02-22T03:38:54;12.05;;;4.70;;
68247;SDS011;55064;49.636;12.164;2023-02-22T03:41:23;13.32;;;5.18;;
68247;SDS011;55064;49.636;12.164;2023-02-22T03:43:59;12.90;;;4.73;;
68247;SDS011;55064;49.636;12.164;2023-02-22T03:46:32;19.23;;;4.88;;
68247;SDS011;55064;49.636;12.164;2023-02-22T03:51:58;19.55;;;4.50;;
68247;SDS011;55064;49.636;12.164;2023-02-22T03:54:26;17.35;;;4.40;;
68247;SDS011;55064;49.636;12.164;2023-02-22T03:56:55;9.90;;;4.30;;
68247;SDS011;55064;49.636;12.164;2023-02-22T03:59:24;21.85;;;5.10;;
68247;SDS011;55064;49.636;12.164;2023-02-22T04:01:55;23.60;;;4.60;;
68247;SDS011;55064;49.636;12.164;2023-02-22T04:04:21;13.80;;;4.65;;
68247;SDS011;55064;49.636;12.164;2023-02-22T04:06:48;25.98;;;5.03;;
68247;SDS011;55064;49.636;12.164;2023-02-22T04:09:14;11.77;;;4.83;;
68247;SDS011;55064;49.636;12.164;2023-02-22T04:11:41;16.55;;;6.28;;
68247;SDS011;55064;49.636;12.164;2023-02-22T04:14:06;39.93;;;6.50;;
68247;SDS011;55064;49.636;12.164;2023-02-22T04:16:32;20.93;;;6.07;;
68247;SDS011;55064;49.636;12.164;2023-02-22T04:19:00;16.37;;;4.77;;
68247;SDS011;55064;49.636;12.164;2023-02-22T04:21:26;14.55;;;4.90;;
68247;SDS011;55064;49.636;12.164;2023-02-22T04:23:54;16.33;;;4.78;;
68247;SDS011;55064;49.636;12.164;2023-02-22T04:26:19;15.30;;;5.10;;
68247;SDS011;55064;49.636;12.164;2023-02-22T04:28:45;12.87;;;5.03;;
68247;SDS011;55064;49.636;12.164;2023-02-22T04:31:10;10.93;;;4.93;;
68247;SDS011;55064;49.636;12.164;2023-02-22T04:33:35;12.20;;;4.67;;
68247;SDS011;55064;49.636;12.164;2023-02-22T04:36:01;11.23;;;4.40;;
68247;SDS011;55064;49.636;12.164;2023-02-22T04:38:26;10.20;;;4.20;;
68247;SDS011;55064;49.636;12.164;2023-02-22T04:40:54;10.70;;;4.72;;
68247;SDS011;55064;49.636;12.164;2023-02-22T04:43:20;10.15;;;4.65;;
68247;SDS011;55064;49.636;12.164;2023-02-22T04:45:46;11.50;;;4.27;;
68247;SDS011;55064;49.636;12.164;2023-02-22T04:48:11;10.97;;;4.47;;
68247;SDS011;55064;49.636;12.164;2023-02-22T04:50:37;9.52;;;3.75;;
68247;SDS011;55064;49.636;12.164;2023-02-22T04:53:03;9.53;;;3.67;;
68247;SDS011;55064;49.636;12.164;2023-02-22T04:55:28;8.18;;;3.53;;
68247;SDS011;55064;49.636;12.164;2023-02-22T04:57:54;9.07;;;3.43;;
68247;SDS011;55064;49.636;12.164;2023-02-22T05:00:20;10.52;;;3.90;;
68247;SDS011;55064;49.636;12.164;2023-02-22T05:02:47;10.80;;;4.80;;
68247;SDS011;55064;49.636;12.164;2023-02-22T05:05:14;10.33;;;4.33;;
68247;SDS011;55064;49.636;12.164;2023-02-22T05:07:41;9.20;;;4.50;;
68247;SDS011;55064;49.636;12.164;2023-02-22T05:10:08;10.67;;;4.77;;
68247;SDS011;55064;49.636;12.164;2023-02-22T05:12:36;11.98;;;4.50;;
68247;SDS011;55064;49.636;12.164;2023-02-22T05:15:04;10.27;;;4.18;;
68247;SDS011;55064;49.636;12.164;2023-02-22T05:17:32;9.35;;;4.22;;
68247;SDS011;55064;49.636;12.164;2023-02-22T05:19:58;12.77;;;5.15;;
68247;SDS011;55064;49.636;12.164;2023-02-22T05:22:24;11.80;;;4.90;;
68247;SDS011;55064;49.636;12.164;2023-02-22T05:24:51;13.10;;;4.90;;
68247;SDS011;55064;49.636;12.164;2023-02-22T05:27:17;17.83;;;7.20;;
68247;SDS011;55064;49.636;12.164;2023-02-22T05:29:46;15.02;;;4.63;;
68247;SDS011;55064;49.636;12.164;2023-02-22T05:32:11;16.97;;;5.60;;
68247;SDS011;55064;49.636;12.164;2023-02-22T05:34:37;13.50;;;5.63;;
68247;SDS011;55064;49.636;12.164;2023-02-22T05:37:04;16.58;;;6.15;;
68247;SDS011;55064;49.636;12.164;2023-02-22T05:39:30;21.37;;;6.80;;
68247;SDS011;55064;49.636;12.164;2023-02-22T05:42:03;21.10;;;6.35;;
68247;SDS011;55064;49.636;12.164;2023-02-22T05:44:29;19.35;;;6.13;;
68247;SDS011;55064;49.636;12.164;2023-02-22T05:47:07;17.47;;;4.63;;
68247;SDS011;55064;49.636;12.164;2023-02-22T05:49:35;15.82;;;4.88;;
68247;SDS011;55064;49.636;12.164;2023-02-22T05:52:01;11.67;;;5.17;;
68247;SDS011;55064;49.636;12.164;2023-02-22T05:54:28;15.68;;;5.53;;
68247;SDS011;55064;49.636;12.164;2023-02-22T05:59:55;14.23;;;5.78;;
68247;SDS011;55064;49.636;12.164;2023-02-22T06:02:22;12.63;;;4.93;;
68247;SDS011;55064;49.636;12.164;2023-02-22T06:04:59;12.73;;;4.72;;
68247;SDS011;55064;49.636;12.164;2023-02-22T06:07:38;11.57;;;4.60;;
68247;SDS011;55064;49.636;12.164;2023-02-22T06:10:16;10.87;;;4.40;;
68247;SDS011;55064;49.636;12.164;2023-02-22T06:18:40;11.85;;;4.80;;
68247;SDS011;55064;49.636;12.164;2023-02-22T06:33:16;13.32;;;6.45;;
68247;SDS011;55064;49.636;12.164;2023-02-22T06:35:44;15.90;;;6.75;;
68247;SDS011;55064;49.636;12.164;2023-02-22T06:38:10;15.40;;;6.30;;
68247;SDS011;55064;49.636;12.164;2023-02-22T06:40:38;14.27;;;6.15;;
68247;SDS011;55064;49.636;12.164;2023-02-22T06:43:03;16.03;;;6.70;;
68247;SDS011;55064;49.636;12.164;2023-02-22T06:45:31;15.50;;;6.60;;
68247;SDS011;55064;49.636;12.164;2023-02-22T06:47:56;18.43;;;7.87;;
68247;SDS011;55064;49.636;12.164;2023-02-22T06:50:23;16.33;;;7.23;;
68247;SDS011;55064;49.636;12.164;2023-02-22T06:52:50;19.05;;;8.50;;
68247;SDS011;55064;49.636;12.164;2023-02-22T06:55:17;18.95;;;10.30;;
68247;SDS011;55064;49.636;12.164;2023-02-22T06:57:45;23.45;;;10.23;;
68247;SDS011;55064;49.636;12.164;2023-02-22T07:00:11;25.90;;;11.87;;
68247;SDS011;55064;49.636;12.164;2023-02-22T07:02:37;21.00;;;10.52;;
68247;SDS011;55064;49.636;12.164;2023-02-22T07:05:03;16.60;;;7.60;;
68247;SDS011;55064;49.636;12.164;2023-02-22T07:07:28;14.60;;;7.20;;
68247;SDS011;55064;49.636;12.164;2023-02-22T07:09:54;15.97;;;7.57;;
68247;SDS011;55064;49.636;12.164;2023-02-22T07:12:19;14.77;;;6.95;;
68247;SDS011;55064;49.636;12.164;2023-02-22T07:14:46;13.20;;;6.10;;
68247;SDS011;55064;49.636;12.164;2023-02-22T07:17:17;12.57;;;5.47;;
68247;SDS011;55064;49.636;12.164;2023-02-22T07:19:45;10.90;;;4.93;;
68247;SDS011;55064;49.636;12.164;2023-02-22T07:22:10;11.80;;;4.87;;
68247;SDS011;55064;49.636;12.164;2023-02-22T07:24:39;9.98;;;4.07;;
68247;SDS011;55064;49.636;12.164;2023-02-22T07:27:05;9.50;;;4.35;;
68247;SDS011;55064;49.636;12.164;2023-02-22T07:29:30;11.77;;;4.73;;
68247;SDS011;55064;49.636;12.164;2023-02-22T07:32:00;12.18;;;5.28;;
68247;SDS011;55064;49.636;12.164;2023-02-22T07:34:26;14.23;;;5.35;;
68247;SDS011;55064;49.636;12.164;2023-02-22T07:36:57;11.32;;;5.20;;
68247;SDS011;55064;49.636;12.164;2023-02-22T07:39:22;12.80;;;4.90;;
68247;SDS011;55064;49.636;12.164;2023-02-22T07:41:47;11.87;;;5.10;;
68247;SDS011;55064;49.636;12.164;2023-02-22T07:44:13;12.47;;;4.80;;
68247;SDS011;55064;49.636;12.164;2023-02-22T07:46:39;13.43;;;5.40;;
68247;SDS011;55064;49.636;12.164;2023-02-22T07:49:04;11.43;;;5.00;;
68247;SDS011;55064;49.636;12.164;2023-02-22T07:51:30;11.70;;;5.13;;
68247;SDS011;55064;49.636;12.164;2023-02-22T07:53:55;11.13;;;4.77;;
68247;SDS011;55064;49.636;12.164;2023-02-22T07:56:21;9.88;;;4.43;;
68247;SDS011;55064;49.636;12.164;2023-02-22T07:58:46;11.57;;;4.80;;
68247;SDS011;55064;49.636;12.164;2023-02-22T08:01:11;11.77;;;4.97;;
68247;SDS011;55064;49.636;12.164;2023-02-22T08:03:38;16.00;;;6.30;;
68247;SDS011;55064;49.636;12.164;2023-02-22T08:06:04;14.43;;;6.40;;
68247;SDS011;55064;49.636;12.164;2023-02-22T08:08:31;16.00;;;6.65;;
68247;SDS011;55064;49.636;12.164;2023-02-22T08:10:58;15.57;;;6.63;;
68247;SDS011;55064;49.636;12.164;2023-02-22T08:13:24;16.33;;;6.25;;
68247;SDS011;55064;49.636;12.164;2023-02-22T08:15:50;13.63;;;5.77;;
68247;SDS011;55064;49.636;12.164;2023-02-22T08:18:18;12.70;;;5.97;;
68247;SDS011;55064;49.636;12.164;2023-02-22T08:20:45;13.30;;;5.68;;
68247;SDS011;55064;49.636;12.164;2023-02-22T08:23:13;15.27;;;6.82;;
68247;SDS011;55064;49.636;12.164;2023-02-22T08:25:40;14.82;;;6.57;;
68247;SDS011;55064;49.636;12.164;2023-02-22T08:28:06;13.87;;;6.70;;
68247;SDS011;55064;49.636;12.164;2023-02-22T08:30:34;15.10;;;6.57;;
68247;SDS011;55064;49.636;12.164;2023-02-22T08:33:07;15.13;;;6.70;;
68247;SDS011;55064;49.636;12.164;2023-02-22T08:35:35;15.68;;;7.22;;
68247;SDS011;55064;49.636;12.164;2023-02-22T08:38:02;15.07;;;6.95;;
68247;SDS011;55064;49.636;12.164;2023-02-22T08:40:30;16.52;;;7.07;;
68247;SDS011;55064;49.636;12.164;2023-02-22T08:42:58;13.15;;;6.32;;
68247;SDS011;55064;49.636;12.164;2023-02-22T08:45:23;13.13;;;6.20;;
68247;SDS011;55064;49.636;12.164;2023-02-22T08:47:49;11.70;;;6.23;;
68247;SDS011;55064;49.636;12.164;2023-02-22T08:52:48;13.00;;;6.50;;
68247;SDS011;55064;49.636;12.164;2023-02-22T08:55:23;14.00;;;6.57;;
68247;SDS011;55064;49.636;12.164;2023-02-22T08:57:52;15.47;;;7.17;;
68247;SDS011;55064;49.636;12.164;2023-02-22T09:00:22;15.40;;;6.97;;
68247;SDS011;55064;49.636;12.164;2023-02-22T09:02:50;12.90;;;6.40;;
68247;SDS011;55064;49.636;12.164;2023-02-22T09:05:16;12.68;;;6.13;;
68247;SDS011;55064;49.636;12.164;2023-02-22T09:07:42;12.93;;;6.53;;
68247;SDS011;55064;49.636;12.164;2023-02-22T09:10:15;12.02;;;5.57;;
68247;SDS011;55064;49.636;12.164;2023-02-22T09:12:42;12.60;;;5.47;;
68247;SDS011;55064;49.636;12.164;2023-02-22T09:15:07;11.53;;;6.17;;
68247;SDS011;55064;49.636;12.164;2023-02-22T09:17:34;12.02;;;5.88;;
68247;SDS011;55064;49.636;12.164;2023-02-22T09:20:01;13.07;;;6.05;;
68247;SDS011;55064;49.636;12.164;2023-02-22T09:22:28;12.88;;;6.07;;
68247;SDS011;55064;49.636;12.164;2023-02-22T09:24:54;14.63;;;6.77;;
68247;SDS011;55064;49.636;12.164;2023-02-22T09:27:19;11.73;;;5.30;;
68247;SDS011;55064;49.636;12.164;2023-02-22T09:29:46;13.03;;;6.03;;
68247;SDS011;55064;49.636;12.164;2023-02-22T09:32:12;10.38;;;5.18;;
68247;SDS011;55064;49.636;12.164;2023-02-22T09:34:38;10.60;;;5.63;;
68247;SDS011;55064;49.636;12.164;2023-02-22T09:37:09;12.15;;;5.93;;
68247;SDS011;55064;49.636;12.164;2023-02-22T09:39:35;11.18;;;5.78;;
68247;SDS011;55064;49.636;12.164;2023-02-22T09:47:16;10.70;;;5.03;;
68247;SDS011;55064;49.636;12.164;2023-02-22T09:52:24;11.05;;;5.90;;
68247;SDS011;55064;49.636;12.164;2023-02-22T09:55:01;13.43;;;6.03;;
68247;SDS011;55064;49.636;12.164;2023-02-22T09:57:35;10.80;;;5.40;;
68247;SDS011;55064;49.636;12.164;2023-02-22T10:02:48;11.10;;;5.40;;
68247;SDS011;55064;49.636;12.164;2023-02-22T10:05:35;10.88;;;5.05;;
68247;SDS011;55064;49.636;12.164;2023-02-22T10:08:15;10.38;;;4.90;;
68247;SDS011;55064;49.636;12.164;2023-02-22T10:10:43;10.90;;;5.00;;
68247;SDS011;55064;49.636;12.164;2023-02-22T10:13:20;12.07;;;5.43;;
68247;SDS011;55064;49.636;12.164;2023-02-22T10:27:22;9.95;;;4.40;;
68247;SDS011;55064;49.636;12.164;2023-02-22T10:29:58;9.02;;;3.65;;
68247;SDS011;55064;49.636;12.164;2023-02-22T10:32:31;8.80;;;3.80;;
68247;SDS011;55064;49.636;12.164;2023-02-22T10:35:52;7.82;;;3.80;;
68247;SDS011;55064;49.636;12.164;2023-02-22T10:43:37;8.00;;;3.55;;
68247;SDS011;55064;49.636;12.164;2023-02-22T10:46:08;6.68;;;2.97;;
68247;SDS011;55064;49.636;12.164;2023-02-22T10:48:39;7.40;;;3.47;;
68247;SDS011;55064;49.636;12.164;2023-02-22T10:51:07;9.07;;;3.40;;
68247;SDS011;55064;49.636;12.164;2023-02-22T10:53:34;7.75;;;3.10;;
68247;SDS011;55064;49.636;12.164;2023-02-22T11:03:55;7.17;;;3.10;;
68247;SDS011;55064;49.636;12.164;2023-02-22T11:06:42;6.78;;;3.20;;
68247;SDS011;55064;49.636;12.164;2023-02-22T11:09:20;7.28;;;3.50;;
68247;SDS011;55064;49.636;12.164;2023-02-22T11:12:06;8.68;;;3.30;;
68247;SDS011;55064;49.636;12.164;2023-02-22T11:14:34;6.50;;;2.80;;
68247;SDS011;55064;49.636;12.164;2023-02-22T11:16:59;8.67;;;2.70;;
68247;SDS011;55064;49.636;12.164;2023-02-22T11:19:30;6.90;;;2.90;;
68247;SDS011;55064;49.636;12.164;2023-02-22T11:24:45;7.00;;;2.50;;
68247;SDS011;55064;49.636;12.164;2023-02-22T11:32:52;8.43;;;2.60;;
68247;SDS011;55064;49.636;12.164;2023-02-22T11:35:47;5.50;;;2.20;;
68247;SDS011;55064;49.636;12.164;2023-02-22T11:38:24;5.50;;;2.20;;
68247;SDS011;55064;49.636;12.164;2023-02-22T11:43:34;6.32;;;2.35;;
68247;SDS011;55064;49.636;12.164;2023-02-22T11:48:25;5.23;;;2.13;;
68247;SDS011;55064;49.636;12.164;2023-02-22T11:53:42;6.68;;;2.35;;
68247;SDS011;55064;49.636;12.164;2023-02-22T11:56:28;6.10;;;2.25;;
68247;SDS011;55064;49.636;12.164;2023-02-22T11:59:05;5.28;;;2.20;;
68247;SDS011;55064;49.636;12.164;2023-02-22T12:01:38;5.80;;;2.50;;
68247;SDS011;55064;49.636;12.164;2023-02-22T12:15:27;7.23;;;2.57;;
68247;SDS011;55064;49.636;12.164;2023-02-22T12:20:36;6.28;;;2.28;;
68247;SDS011;55064;49.636;12.164;2023-02-22T12:25:37;5.70;;;2.30;;
68247;SDS011;55064;49.636;12.164;2023-02-22T12:28:23;5.40;;;2.27;;
68247;SDS011;55064;49.636;12.164;2023-02-22T12:36:47;6.53;;;2.30;;
68247;SDS011;55064;49.636;12.164;2023-02-22T12:42:18;6.10;;;2.20;;
68247;SDS011;55064;49.636;12.164;2023-02-22T12:45:07;5.88;;;2.50;;
68247;SDS011;55064;49.636;12.164;2023-02-22T12:47:51;5.25;;;1.88;;
68247;SDS011;55064;49.636;12.164;2023-02-22T12:50:43;4.97;;;2.10;;
68247;SDS011;55064;49.636;12.164;2023-02-22T12:53:13;8.15;;;2.60;;
68247;SDS011;55064;49.636;12.164;2023-02-22T12:55:51;6.73;;;2.27;;
68247;SDS011;55064;49.636;12.164;2023-02-22T12:58:24;7.13;;;2.40;;
68247;SDS011;55064;49.636;12.164;2023-02-22T13:03:41;5.72;;;2.00;;
68247;SDS011;55064;49.636;12.164;2023-02-22T13:11:38;5.00;;;2.10;;
68247;SDS011;55064;49.636;12.164;2023-02-22T13:33:25;5.40;;;1.80;;
68247;SDS011;55064;49.636;12.164;2023-02-22T13:36:04;5.40;;;1.90;;
68247;SDS011;55064;49.636;12.164;2023-02-22T13:41:24;7.72;;;1.88;;
68247;SDS011;55064;49.636;12.164;2023-02-22T13:52:49;4.80;;;1.60;;
68247;SDS011;55064;49.636;12.164;2023-02-22T13:55:25;5.07;;;1.88;;
68247;SDS011;55064;49.636;12.164;2023-02-22T13:58:09;5.90;;;1.83;;
68247;SDS011;55064;49.636;12.164;2023-02-22T14:10:47;4.93;;;1.30;;
68247;SDS011;55064;49.636;12.164;2023-02-22T14:13:18;4.72;;;1.50;;
68247;SDS011;55064;49.636;12.164;2023-02-22T14:18:28;5.45;;;1.83;;
68247;SDS011;55064;49.636;12.164;2023-02-22T14:26:27;5.63;;;1.58;;
68247;SDS011;55064;49.636;12.164;2023-02-22T14:28:55;5.25;;;1.60;;
68247;SDS011;55064;49.636;12.164;2023-02-22T14:31:29;4.60;;;1.83;;
68247;SDS011;55064;49.636;12.164;2023-02-22T14:42:39;4.18;;;1.45;;
68247;SDS011;55064;49.636;12.164;2023-02-22T14:45:02;4.07;;;1.48;;
68247;SDS011;55064;49.636;12.164;2023-02-22T14:47:37;4.10;;;1.48;;
68247;SDS011;55064;49.636;12.164;2023-02-22T14:50:12;5.60;;;1.40;;
68247;SDS011;55064;49.636;12.164;2023-02-22T14:55:58;4.70;;;1.63;;
68247;SDS011;55064;49.636;12.164;2023-02-22T15:01:14;4.28;;;1.50;;
68247;SDS011;55064;49.636;12.164;2023-02-22T15:03:44;4.60;;;1.63;;
68247;SDS011;55064;49.636;12.164;2023-02-22T15:06:20;4.57;;;1.60;;
68247;SDS011;55064;49.636;12.164;2023-02-22T15:08:48;4.93;;;1.85;;
68247;SDS011;55064;49.636;12.164;2023-02-22T15:11:32;6.32;;;2.10;;
68247;SDS011;55064;49.636;12.164;2023-02-22T15:13:58;5.43;;;1.98;;
68247;SDS011;55064;49.636;12.164;2023-02-22T15:16:31;16.93;;;6.53;;
68247;SDS011;55064;49.636;12.164;2023-02-22T15:18:58;12.00;;;4.47;;
68247;SDS011;55064;49.636;12.164;2023-02-22T15:21:29;15.30;;;6.85;;
68247;SDS011;55064;49.636;12.164;2023-02-22T15:23:59;15.55;;;7.80;;
68247;SDS011;55064;49.636;12.164;2023-02-22T15:29:13;9.07;;;2.20;;
68247;SDS011;55064;49.636;12.164;2023-02-22T15:31:42;4.72;;;1.70;;
68247;SDS011;55064;49.636;12.164;2023-02-22T15:36:39;5.28;;;1.88;;
68247;SDS011;55064;49.636;12.164;2023-02-22T15:42:26;4.23;;;1.47;;
68247;SDS011;55064;49.636;12.164;2023-02-22T15:44:49;7.90;;;3.63;;
68247;SDS011;55064;49.636;12.164;2023-02-22T15:47:29;6.05;;;1.90;;
68247;SDS011;55064;49.636;12.164;2023-02-22T15:52:46;6.03;;;1.80;;
68247;SDS011;55064;49.636;12.164;2023-02-22T15:58:22;5.10;;;1.70;;
68247;SDS011;55064;49.636;12.164;2023-02-22T16:03:37;4.78;;;1.50;;
68247;SDS011;55064;49.636;12.164;2023-02-22T16:06:09;5.05;;;1.67;;
68247;SDS011;55064;49.636;12.164;2023-02-22T16:08:42;5.10;;;1.87;;
68247;SDS011;55064;49.636;12.164;2023-02-22T16:11:34;5.97;;;2.25;;
68247;SDS011;55064;49.636;12.164;2023-02-22T16:19:48;5.07;;;1.77;;
68247;SDS011;55064;49.636;12.164;2023-02-22T16:22:27;6.97;;;3.10;;
68247;SDS011;55064;49.636;12.164;2023-02-22T16:27:45;8.05;;;4.53;;
68247;SDS011;55064;49.636;12.164;2023-02-22T16:32:42;19.67;;;11.00;;
68247;SDS011;55064;49.636;12.164;2023-02-22T16:35:08;12.88;;;7.15;;
68247;SDS011;55064;49.636;12.164;2023-02-22T16:37:45;5.93;;;2.65;;
68247;SDS011;55064;49.636;12.164;2023-02-22T16:43:07;5.17;;;2.20;;
68247;SDS011;55064;49.636;12.164;2023-02-22T16:45:38;15.23;;;5.60;;
68247;SDS011;55064;49.636;12.164;2023-02-22T16:48:18;8.35;;;2.47;;
68247;SDS011;55064;49.636;12.164;2023-02-22T16:50:52;9.33;;;2.87;;
68247;SDS011;55064;49.636;12.164;2023-02-22T16:53:20;9.20;;;3.78;;
68247;SDS011;55064;49.636;12.164;2023-02-22T16:55:50;12.65;;;5.50;;
68247;SDS011;55064;49.636;12.164;2023-02-22T16:58:23;12.68;;;4.90;;
68247;SDS011;55064;49.636;12.164;2023-02-22T17:00:53;10.27;;;4.15;;
68247;SDS011;55064;49.636;12.164;2023-02-22T17:03:21;8.63;;;3.77;;
68247;SDS011;55064;49.636;12.164;2023-02-22T17:05:48;10.27;;;4.30;;
68247;SDS011;55064;49.636;12.164;2023-02-22T17:08:13;13.60;;;6.45;;
68247;SDS011;55064;49.636;12.164;2023-02-22T17:13:28;8.40;;;3.63;;
68247;SDS011;55064;49.636;12.164;2023-02-22T17:15:55;11.65;;;5.50;;
68247;SDS011;55064;49.636;12.164;2023-02-22T17:18:21;16.75;;;8.73;;
68247;SDS011;55064;49.636;12.164;2023-02-22T17:20:48;23.42;;;12.50;;
68247;SDS011;55064;49.636;12.164;2023-02-22T17:40:04;14.77;;;6.53;;
68247;SDS011;55064;49.636;12.164;2023-02-22T17:42:35;13.85;;;6.55;;
68247;SDS011;55064;49.636;12.164;2023-02-22T17:47:31;11.48;;;5.28;;
68247;SDS011;55064;49.636;12.164;2023-02-22T17:49:56;10.13;;;4.73;;
68247;SDS011;55064;49.636;12.164;2023-02-22T17:52:35;10.50;;;5.33;;
68247;SDS011;55064;49.636;12.164;2023-02-22T17:57:37;9.80;;;4.47;;
68247;SDS011;55064;49.636;12.164;2023-02-22T18:00:27;8.20;;;3.90;;
68247;SDS011;55064;49.636;12.164;2023-02-22T18:03:07;8.55;;;3.85;;
68247;SDS011;55064;49.636;12.164;2023-02-22T18:05:43;10.10;;;4.03;;
68247;SDS011;55064;49.636;12.164;2023-02-22T18:08:17;9.32;;;4.10;;
68247;SDS011;55064;49.636;12.164;2023-02-22T18:10:50;9.55;;;3.75;;
68247;SDS011;55064;49.636;12.164;2023-02-22T18:13:20;8.13;;;3.70;;
68247;SDS011;55064;49.636;12.164;2023-02-22T18:15:59;9.50;;;3.92;;
68247;SDS011;55064;49.636;12.164;2023-02-22T18:21:17;9.02;;;4.00;;
68247;SDS011;55064;49.636;12.164;2023-02-22T18:29:26;10.50;;;4.68;;
68247;SDS011;55064;49.636;12.164;2023-02-22T18:31:52;7.78;;;3.88;;
68247;SDS011;55064;49.636;12.164;2023-02-22T18:34:25;8.53;;;3.70;;
68247;SDS011;55064;49.636;12.164;2023-02-22T18:36:57;9.85;;;4.80;;
68247;SDS011;55064;49.636;12.164;2023-02-22T18:39:29;10.52;;;5.28;;
68247;SDS011;55064;49.636;12.164;2023-02-22T18:45:09;10.40;;;4.40;;
68247;SDS011;55064;49.636;12.164;2023-02-22T18:47:38;10.27;;;4.70;;
68247;SDS011;55064;49.636;12.164;2023-02-22T18:50:14;9.40;;;4.40;;
68247;SDS011;55064;49.636;12.164;2023-02-22T18:52:43;8.98;;;3.92;;
68247;SDS011;55064;49.636;12.164;2023-02-22T18:55:14;10.00;;;4.38;;
68247;SDS011;55064;49.636;12.164;2023-02-22T18:57:41;11.40;;;4.28;;
68247;SDS011;55064;49.636;12.164;2023-02-22T19:00:08;9.57;;;4.60;;
68247;SDS011;55064;49.636;12.164;2023-02-22T19:02:34;11.27;;;4.90;;
68247;SDS011;55064;49.636;12.164;2023-02-22T19:05:03;11.85;;;5.10;;
68247;SDS011;55064;49.636;12.164;2023-02-22T19:11:11;9.43;;;4.60;;
68247;SDS011;55064;49.636;12.164;2023-02-22T19:13:53;10.37;;;4.43;;
68247;SDS011;55064;49.636;12.164;2023-02-22T19:16:23;10.43;;;4.40;;
68247;SDS011;55064;49.636;12.164;2023-02-22T19:18:50;11.10;;;4.70;;
68247;SDS011;55064;49.636;12.164;2023-02-22T19:21:30;10.85;;;4.78;;
68247;SDS011;55064;49.636;12.164;2023-02-22T19:24:05;10.65;;;5.50;;
68247;SDS011;55064;49.636;12.164;2023-02-22T19:26:33;9.77;;;4.63;;